sensor_id;sensor_type;location;lat;lon;timestamp;P1;durP1;ratioP1;P2;durP2;ratioP2
46266;SDS011;31998;48.798;15.066;2022-11-25T00:00:19;2.67;;;1.60;;
46266;SDS011;31998;48.798;15.066;2022-11-25T00:02:44;2.13;;;1.57;;
46266;SDS011;31998;48.798;15.066;2022-11-25T00:05:10;2.07;;;1.90;;
46266;SDS011;31998;48.798;15.066;2022-11-25T00:07:35;1.67;;;1.57;;
46266;SDS011;31998;48.798;15.066;2022-11-25T00:10:02;1.50;;;1.50;;
46266;SDS011;31998;48.798;15.066;2022-11-25T00:12:28;1.50;;;1.40;;
46266;SDS011;31998;48.798;15.066;2022-11-25T00:14:54;5.23;;;2.10;;
46266;SDS011;31998;48.798;15.066;2022-11-25T00:17:19;1.60;;;1.50;;
46266;SDS011;31998;48.798;15.066;2022-11-25T00:19:44;3.37;;;2.20;;
46266;SDS011;31998;48.798;15.066;2022-11-25T00:22:12;2.53;;;1.83;;
46266;SDS011;31998;48.798;15.066;2022-11-25T00:24:38;6.40;;;1.87;;
46266;SDS011;31998;48.798;15.066;2022-11-25T00:27:04;2.17;;;1.80;;
46266;SDS011;31998;48.798;15.066;2022-11-25T00:29:29;2.03;;;1.83;;
46266;SDS011;31998;48.798;15.066;2022-11-25T00:31:55;2.47;;;2.10;;
46266;SDS011;31998;48.798;15.066;2022-11-25T00:34:20;2.20;;;1.90;;
46266;SDS011;31998;48.798;15.066;2022-11-25T00:36:46;1.97;;;1.87;;
46266;SDS011;31998;48.798;15.066;2022-11-25T00:39:12;6.23;;;1.97;;
46266;SDS011;31998;48.798;15.066;2022-11-25T00:41:39;2.47;;;2.00;;
46266;SDS011;31998;48.798;15.066;2022-11-25T00:44:23;2.80;;;1.87;;
46266;SDS011;31998;48.798;15.066;2022-11-25T00:49:33;2.93;;;2.70;;
46266;SDS011;31998;48.798;15.066;2022-11-25T00:52:00;1.90;;;1.80;;
46266;SDS011;31998;48.798;15.066;2022-11-25T00:54:26;6.17;;;4.33;;
46266;SDS011;31998;48.798;15.066;2022-11-25T00:56:51;4.57;;;4.20;;
46266;SDS011;31998;48.798;15.066;2022-11-25T00:59:16;4.07;;;3.40;;
46266;SDS011;31998;48.798;15.066;2022-11-25T01:01:42;9.63;;;5.47;;
46266;SDS011;31998;48.798;15.066;2022-11-25T01:04:07;3.17;;;2.97;;
46266;SDS011;31998;48.798;15.066;2022-11-25T01:06:34;3.33;;;3.13;;
46266;SDS011;31998;48.798;15.066;2022-11-25T01:09:00;6.40;;;5.70;;
46266;SDS011;31998;48.798;15.066;2022-11-25T01:11:26;7.17;;;5.90;;
46266;SDS011;31998;48.798;15.066;2022-11-25T01:13:51;4.93;;;3.70;;
46266;SDS011;31998;48.798;15.066;2022-11-25T01:16:21;6.43;;;5.83;;
46266;SDS011;31998;48.798;15.066;2022-11-25T01:18:47;6.67;;;4.10;;
46266;SDS011;31998;48.798;15.066;2022-11-25T01:21:16;6.87;;;3.50;;
46266;SDS011;31998;48.798;15.066;2022-11-25T01:23:46;4.53;;;2.60;;
46266;SDS011;31998;48.798;15.066;2022-11-25T01:26:14;2.87;;;2.77;;
46266;SDS011;31998;48.798;15.066;2022-11-25T01:28:41;2.63;;;2.00;;
46266;SDS011;31998;48.798;15.066;2022-11-25T01:31:09;1.60;;;1.60;;
46266;SDS011;31998;48.798;15.066;2022-11-25T01:33:36;3.53;;;1.90;;
46266;SDS011;31998;48.798;15.066;2022-11-25T01:36:06;1.40;;;1.40;;
46266;SDS011;31998;48.798;15.066;2022-11-25T01:38:34;3.23;;;1.43;;
46266;SDS011;31998;48.798;15.066;2022-11-25T01:41:00;3.13;;;2.70;;
46266;SDS011;31998;48.798;15.066;2022-11-25T01:43:27;4.00;;;3.30;;
46266;SDS011;31998;48.798;15.066;2022-11-25T01:45:53;14.27;;;2.63;;
46266;SDS011;31998;48.798;15.066;2022-11-25T01:48:31;6.67;;;5.33;;
46266;SDS011;31998;48.798;15.066;2022-11-25T01:51:01;3.63;;;3.43;;
46266;SDS011;31998;48.798;15.066;2022-11-25T01:53:27;6.13;;;2.30;;
46266;SDS011;31998;48.798;15.066;2022-11-25T01:55:53;3.70;;;3.50;;
46266;SDS011;31998;48.798;15.066;2022-11-25T01:58:31;2.87;;;2.67;;
46266;SDS011;31998;48.798;15.066;2022-11-25T02:00:59;6.10;;;2.60;;
46266;SDS011;31998;48.798;15.066;2022-11-25T02:03:29;5.67;;;3.50;;
46266;SDS011;31998;48.798;15.066;2022-11-25T02:06:19;8.43;;;3.23;;
46266;SDS011;31998;48.798;15.066;2022-11-25T02:08:48;29.27;;;4.23;;
46266;SDS011;31998;48.798;15.066;2022-11-25T02:11:19;3.27;;;2.17;;
46266;SDS011;31998;48.798;15.066;2022-11-25T02:13:47;2.97;;;2.40;;
46266;SDS011;31998;48.798;15.066;2022-11-25T02:16:14;1.60;;;1.50;;
46266;SDS011;31998;48.798;15.066;2022-11-25T02:18:39;1.90;;;1.80;;
46266;SDS011;31998;48.798;15.066;2022-11-25T02:21:05;1.70;;;1.60;;
46266;SDS011;31998;48.798;15.066;2022-11-25T02:26:04;1.50;;;1.40;;
46266;SDS011;31998;48.798;15.066;2022-11-25T02:28:30;15.43;;;2.43;;
46266;SDS011;31998;48.798;15.066;2022-11-25T02:30:57;4.60;;;1.67;;
46266;SDS011;31998;48.798;15.066;2022-11-25T02:33:23;1.00;;;1.00;;
46266;SDS011;31998;48.798;15.066;2022-11-25T02:35:54;1.27;;;1.00;;
46266;SDS011;31998;48.798;15.066;2022-11-25T02:38:21;0.93;;;0.93;;
46266;SDS011;31998;48.798;15.066;2022-11-25T02:40:57;1.87;;;0.93;;
46266;SDS011;31998;48.798;15.066;2022-11-25T02:43:32;0.70;;;0.70;;
46266;SDS011;31998;48.798;15.066;2022-11-25T02:45:59;0.90;;;0.90;;
46266;SDS011;31998;48.798;15.066;2022-11-25T02:48:27;0.90;;;0.90;;
46266;SDS011;31998;48.798;15.066;2022-11-25T02:50:54;3.50;;;0.90;;
46266;SDS011;31998;48.798;15.066;2022-11-25T02:53:20;4.73;;;0.70;;
46266;SDS011;31998;48.798;15.066;2022-11-25T02:55:45;1.13;;;0.90;;
46266;SDS011;31998;48.798;15.066;2022-11-25T02:58:11;165.37;;;4.37;;
46266;SDS011;31998;48.798;15.066;2022-11-25T03:00:37;2.40;;;0.93;;
46266;SDS011;31998;48.798;15.066;2022-11-25T03:03:03;43.87;;;2.17;;
46266;SDS011;31998;48.798;15.066;2022-11-25T03:05:29;3.17;;;1.13;;
46266;SDS011;31998;48.798;15.066;2022-11-25T03:07:55;20.43;;;1.27;;
46266;SDS011;31998;48.798;15.066;2022-11-25T03:10:20;58.87;;;3.00;;
46266;SDS011;31998;48.798;15.066;2022-11-25T03:12:46;1.03;;;1.03;;
46266;SDS011;31998;48.798;15.066;2022-11-25T03:15:11;10.73;;;2.07;;
46266;SDS011;31998;48.798;15.066;2022-11-25T03:17:36;1.00;;;1.00;;
46266;SDS011;31998;48.798;15.066;2022-11-25T03:20:03;4.13;;;1.00;;
46266;SDS011;31998;48.798;15.066;2022-11-25T03:22:30;16.40;;;1.93;;
46266;SDS011;31998;48.798;15.066;2022-11-25T03:24:55;2.20;;;1.07;;
46266;SDS011;31998;48.798;15.066;2022-11-25T03:27:20;0.93;;;0.93;;
46266;SDS011;31998;48.798;15.066;2022-11-25T03:29:46;10.73;;;0.93;;
46266;SDS011;31998;48.798;15.066;2022-11-25T03:32:11;12.20;;;1.47;;
46266;SDS011;31998;48.798;15.066;2022-11-25T03:34:36;3.13;;;1.07;;
46266;SDS011;31998;48.798;15.066;2022-11-25T03:37:02;43.63;;;3.30;;
46266;SDS011;31998;48.798;15.066;2022-11-25T03:39:27;6.00;;;1.40;;
46266;SDS011;31998;48.798;15.066;2022-11-25T03:41:53;356.40;;;11.53;;
46266;SDS011;31998;48.798;15.066;2022-11-25T03:44:18;1.40;;;1.30;;
46266;SDS011;31998;48.798;15.066;2022-11-25T03:46:43;1.30;;;1.03;;
46266;SDS011;31998;48.798;15.066;2022-11-25T03:49:09;2.57;;;1.00;;
46266;SDS011;31998;48.798;15.066;2022-11-25T03:51:34;5.10;;;1.50;;
46266;SDS011;31998;48.798;15.066;2022-11-25T03:53:59;1.03;;;1.03;;
46266;SDS011;31998;48.798;15.066;2022-11-25T03:56:25;1.90;;;1.23;;
46266;SDS011;31998;48.798;15.066;2022-11-25T03:58:50;3.40;;;1.23;;
46266;SDS011;31998;48.798;15.066;2022-11-25T04:01:16;2.53;;;1.20;;
46266;SDS011;31998;48.798;15.066;2022-11-25T04:03:41;0.90;;;0.90;;
46266;SDS011;31998;48.798;15.066;2022-11-25T04:06:06;0.70;;;0.70;;
46266;SDS011;31998;48.798;15.066;2022-11-25T04:08:32;3.17;;;1.03;;
46266;SDS011;31998;48.798;15.066;2022-11-25T04:10:57;0.73;;;0.73;;
46266;SDS011;31998;48.798;15.066;2022-11-25T04:13:23;0.90;;;0.77;;
46266;SDS011;31998;48.798;15.066;2022-11-25T04:15:49;0.80;;;0.80;;
46266;SDS011;31998;48.798;15.066;2022-11-25T04:18:15;11.83;;;1.47;;
46266;SDS011;31998;48.798;15.066;2022-11-25T04:20:42;2.73;;;0.73;;
46266;SDS011;31998;48.798;15.066;2022-11-25T04:23:08;8.03;;;1.37;;
46266;SDS011;31998;48.798;15.066;2022-11-25T04:25:36;2.93;;;1.20;;
46266;SDS011;31998;48.798;15.066;2022-11-25T04:28:01;4.50;;;1.20;;
46266;SDS011;31998;48.798;15.066;2022-11-25T04:30:28;2.00;;;1.00;;
46266;SDS011;31998;48.798;15.066;2022-11-25T04:32:53;6.80;;;1.17;;
46266;SDS011;31998;48.798;15.066;2022-11-25T04:35:19;3.47;;;0.60;;
46266;SDS011;31998;48.798;15.066;2022-11-25T04:37:44;1.00;;;1.00;;
46266;SDS011;31998;48.798;15.066;2022-11-25T04:40:11;3.53;;;1.40;;
46266;SDS011;31998;48.798;15.066;2022-11-25T04:42:37;1.60;;;1.47;;
46266;SDS011;31998;48.798;15.066;2022-11-25T04:45:13;89.43;;;3.43;;
46266;SDS011;31998;48.798;15.066;2022-11-25T04:47:40;17.40;;;1.77;;
46266;SDS011;31998;48.798;15.066;2022-11-25T04:50:08;335.63;;;9.97;;
46266;SDS011;31998;48.798;15.066;2022-11-25T04:52:38;3.83;;;0.87;;
46266;SDS011;31998;48.798;15.066;2022-11-25T04:55:03;0.80;;;0.80;;
46266;SDS011;31998;48.798;15.066;2022-11-25T04:57:29;12.00;;;2.33;;
46266;SDS011;31998;48.798;15.066;2022-11-25T04:59:54;3.37;;;1.37;;
46266;SDS011;31998;48.798;15.066;2022-11-25T05:02:21;1.33;;;0.90;;
46266;SDS011;31998;48.798;15.066;2022-11-25T05:04:49;8.43;;;0.80;;
46266;SDS011;31998;48.798;15.066;2022-11-25T05:07:16;1.43;;;1.10;;
46266;SDS011;31998;48.798;15.066;2022-11-25T05:09:42;0.70;;;0.70;;
46266;SDS011;31998;48.798;15.066;2022-11-25T05:12:09;0.93;;;0.93;;
46266;SDS011;31998;48.798;15.066;2022-11-25T05:14:37;1.83;;;1.47;;
46266;SDS011;31998;48.798;15.066;2022-11-25T05:17:02;13.97;;;1.03;;
46266;SDS011;31998;48.798;15.066;2022-11-25T05:19:28;2.20;;;0.80;;
46266;SDS011;31998;48.798;15.066;2022-11-25T05:21:54;1.90;;;0.70;;
46266;SDS011;31998;48.798;15.066;2022-11-25T05:24:19;1.00;;;0.90;;
46266;SDS011;31998;48.798;15.066;2022-11-25T05:26:45;0.80;;;0.80;;
46266;SDS011;31998;48.798;15.066;2022-11-25T05:29:10;1.00;;;1.00;;
46266;SDS011;31998;48.798;15.066;2022-11-25T05:31:36;5.67;;;1.53;;
46266;SDS011;31998;48.798;15.066;2022-11-25T05:34:01;7.83;;;1.60;;
46266;SDS011;31998;48.798;15.066;2022-11-25T05:36:27;1.00;;;1.00;;
46266;SDS011;31998;48.798;15.066;2022-11-25T05:38:54;2.93;;;1.03;;
46266;SDS011;31998;48.798;15.066;2022-11-25T05:41:21;11.70;;;1.50;;
46266;SDS011;31998;48.798;15.066;2022-11-25T05:43:46;1.47;;;1.33;;
46266;SDS011;31998;48.798;15.066;2022-11-25T05:46:12;1.00;;;1.00;;
46266;SDS011;31998;48.798;15.066;2022-11-25T05:48:37;0.87;;;0.87;;
46266;SDS011;31998;48.798;15.066;2022-11-25T05:51:03;1.13;;;0.87;;
46266;SDS011;31998;48.798;15.066;2022-11-25T05:53:29;3.67;;;1.03;;
46266;SDS011;31998;48.798;15.066;2022-11-25T05:55:55;0.80;;;0.80;;
46266;SDS011;31998;48.798;15.066;2022-11-25T05:58:22;1.07;;;0.97;;
46266;SDS011;31998;48.798;15.066;2022-11-25T06:00:48;2.20;;;1.20;;
46266;SDS011;31998;48.798;15.066;2022-11-25T06:03:13;1.00;;;1.00;;
46266;SDS011;31998;48.798;15.066;2022-11-25T06:05:39;1.20;;;1.10;;
46266;SDS011;31998;48.798;15.066;2022-11-25T06:08:05;1.37;;;1.10;;
46266;SDS011;31998;48.798;15.066;2022-11-25T06:10:31;1.10;;;1.10;;
46266;SDS011;31998;48.798;15.066;2022-11-25T06:12:57;1.87;;;1.77;;
46266;SDS011;31998;48.798;15.066;2022-11-25T06:15:22;1.60;;;1.60;;
46266;SDS011;31998;48.798;15.066;2022-11-25T06:17:47;1.50;;;1.50;;
46266;SDS011;31998;48.798;15.066;2022-11-25T06:20:13;1.70;;;1.60;;
46266;SDS011;31998;48.798;15.066;2022-11-25T06:22:38;1.70;;;1.60;;
46266;SDS011;31998;48.798;15.066;2022-11-25T06:25:04;1.87;;;1.87;;
46266;SDS011;31998;48.798;15.066;2022-11-25T06:27:29;1.40;;;1.40;;
46266;SDS011;31998;48.798;15.066;2022-11-25T06:29:55;5.43;;;2.00;;
46266;SDS011;31998;48.798;15.066;2022-11-25T06:32:20;5.07;;;2.20;;
46266;SDS011;31998;48.798;15.066;2022-11-25T06:34:46;2.00;;;2.00;;
46266;SDS011;31998;48.798;15.066;2022-11-25T06:37:11;2.97;;;2.80;;
46266;SDS011;31998;48.798;15.066;2022-11-25T06:39:36;1.43;;;1.43;;
46266;SDS011;31998;48.798;15.066;2022-11-25T06:42:02;2.20;;;2.10;;
46266;SDS011;31998;48.798;15.066;2022-11-25T06:44:27;1.70;;;1.60;;
46266;SDS011;31998;48.798;15.066;2022-11-25T06:46:52;1.50;;;1.40;;
46266;SDS011;31998;48.798;15.066;2022-11-25T06:49:18;3.20;;;2.93;;
46266;SDS011;31998;48.798;15.066;2022-11-25T06:51:43;2.70;;;2.00;;
46266;SDS011;31998;48.798;15.066;2022-11-25T06:54:08;2.10;;;1.90;;
46266;SDS011;31998;48.798;15.066;2022-11-25T06:56:34;1.97;;;1.87;;
46266;SDS011;31998;48.798;15.066;2022-11-25T06:59:00;2.07;;;1.97;;
46266;SDS011;31998;48.798;15.066;2022-11-25T07:01:27;1.30;;;1.30;;
46266;SDS011;31998;48.798;15.066;2022-11-25T07:03:54;1.50;;;1.40;;
46266;SDS011;31998;48.798;15.066;2022-11-25T07:06:23;2.43;;;1.27;;
46266;SDS011;31998;48.798;15.066;2022-11-25T07:08:49;1.37;;;1.37;;
46266;SDS011;31998;48.798;15.066;2022-11-25T07:11:16;1.50;;;1.47;;
46266;SDS011;31998;48.798;15.066;2022-11-25T07:13:44;2.73;;;1.10;;
46266;SDS011;31998;48.798;15.066;2022-11-25T07:16:10;3.33;;;2.70;;
46266;SDS011;31998;48.798;15.066;2022-11-25T07:18:37;3.20;;;2.50;;
46266;SDS011;31998;48.798;15.066;2022-11-25T07:21:04;11.10;;;6.80;;
46266;SDS011;31998;48.798;15.066;2022-11-25T07:23:31;7.80;;;4.13;;
46266;SDS011;31998;48.798;15.066;2022-11-25T07:26:00;8.37;;;5.23;;
46266;SDS011;31998;48.798;15.066;2022-11-25T07:28:27;8.97;;;4.97;;
46266;SDS011;31998;48.798;15.066;2022-11-25T07:30:52;2.83;;;2.73;;
46266;SDS011;31998;48.798;15.066;2022-11-25T07:33:18;3.97;;;3.67;;
46266;SDS011;31998;48.798;15.066;2022-11-25T07:35:43;9.33;;;4.60;;
46266;SDS011;31998;48.798;15.066;2022-11-25T07:38:08;58.40;;;17.77;;
46266;SDS011;31998;48.798;15.066;2022-11-25T07:40:34;32.17;;;12.27;;
46266;SDS011;31998;48.798;15.066;2022-11-25T07:42:59;20.53;;;9.20;;
46266;SDS011;31998;48.798;15.066;2022-11-25T07:45:24;8.27;;;6.33;;
46266;SDS011;31998;48.798;15.066;2022-11-25T07:47:51;4.80;;;4.07;;
46266;SDS011;31998;48.798;15.066;2022-11-25T07:50:16;3.07;;;2.90;;
46266;SDS011;31998;48.798;15.066;2022-11-25T07:52:41;4.00;;;3.80;;
46266;SDS011;31998;48.798;15.066;2022-11-25T07:55:07;13.23;;;5.10;;
46266;SDS011;31998;48.798;15.066;2022-11-25T07:57:33;8.10;;;6.47;;
46266;SDS011;31998;48.798;15.066;2022-11-25T07:59:58;9.43;;;6.60;;
46266;SDS011;31998;48.798;15.066;2022-11-25T08:02:24;14.23;;;5.63;;
46266;SDS011;31998;48.798;15.066;2022-11-25T08:04:49;10.97;;;7.20;;
46266;SDS011;31998;48.798;15.066;2022-11-25T08:07:14;11.77;;;7.60;;
46266;SDS011;31998;48.798;15.066;2022-11-25T08:09:40;10.90;;;7.80;;
46266;SDS011;31998;48.798;15.066;2022-11-25T08:12:05;9.37;;;6.73;;
46266;SDS011;31998;48.798;15.066;2022-11-25T08:14:30;9.60;;;7.47;;
46266;SDS011;31998;48.798;15.066;2022-11-25T08:16:56;6.00;;;5.40;;
46266;SDS011;31998;48.798;15.066;2022-11-25T08:19:21;5.00;;;4.70;;
46266;SDS011;31998;48.798;15.066;2022-11-25T08:21:47;3.23;;;3.00;;
46266;SDS011;31998;48.798;15.066;2022-11-25T08:24:16;3.03;;;2.83;;
46266;SDS011;31998;48.798;15.066;2022-11-25T08:26:43;3.80;;;3.50;;
46266;SDS011;31998;48.798;15.066;2022-11-25T08:29:10;7.00;;;4.90;;
46266;SDS011;31998;48.798;15.066;2022-11-25T08:31:39;5.60;;;4.20;;
46266;SDS011;31998;48.798;15.066;2022-11-25T08:34:05;7.80;;;4.57;;
46266;SDS011;31998;48.798;15.066;2022-11-25T08:36:31;5.00;;;4.50;;
46266;SDS011;31998;48.798;15.066;2022-11-25T08:38:58;7.63;;;5.43;;
46266;SDS011;31998;48.798;15.066;2022-11-25T08:41:30;7.13;;;4.93;;
46266;SDS011;31998;48.798;15.066;2022-11-25T08:43:58;10.40;;;5.70;;
46266;SDS011;31998;48.798;15.066;2022-11-25T08:46:25;6.83;;;4.77;;
46266;SDS011;31998;48.798;15.066;2022-11-25T08:48:53;7.30;;;4.87;;
46266;SDS011;31998;48.798;15.066;2022-11-25T08:51:29;5.30;;;4.43;;
46266;SDS011;31998;48.798;15.066;2022-11-25T08:53:56;5.00;;;4.03;;
46266;SDS011;31998;48.798;15.066;2022-11-25T08:56:23;4.37;;;3.97;;
46266;SDS011;31998;48.798;15.066;2022-11-25T08:58:49;6.10;;;4.80;;
46266;SDS011;31998;48.798;15.066;2022-11-25T09:01:15;5.13;;;4.33;;
46266;SDS011;31998;48.798;15.066;2022-11-25T09:03:43;3.67;;;3.37;;
46266;SDS011;31998;48.798;15.066;2022-11-25T09:06:10;5.30;;;3.50;;
46266;SDS011;31998;48.798;15.066;2022-11-25T09:08:37;5.27;;;4.57;;
46266;SDS011;31998;48.798;15.066;2022-11-25T09:11:04;12.63;;;4.10;;
46266;SDS011;31998;48.798;15.066;2022-11-25T09:13:30;4.07;;;3.60;;
46266;SDS011;31998;48.798;15.066;2022-11-25T09:15:55;10.47;;;3.73;;
46266;SDS011;31998;48.798;15.066;2022-11-25T09:18:21;8.43;;;3.43;;
46266;SDS011;31998;48.798;15.066;2022-11-25T09:20:50;9.27;;;5.17;;
46266;SDS011;31998;48.798;15.066;2022-11-25T09:23:17;12.60;;;4.30;;
46266;SDS011;31998;48.798;15.066;2022-11-25T09:25:49;11.47;;;4.23;;
46266;SDS011;31998;48.798;15.066;2022-11-25T09:28:17;7.93;;;3.23;;
46266;SDS011;31998;48.798;15.066;2022-11-25T09:30:42;18.00;;;4.00;;
46266;SDS011;31998;48.798;15.066;2022-11-25T09:33:07;6.00;;;3.33;;
46266;SDS011;31998;48.798;15.066;2022-11-25T09:35:33;7.17;;;3.90;;
46266;SDS011;31998;48.798;15.066;2022-11-25T09:37:58;3.53;;;3.23;;
46266;SDS011;31998;48.798;15.066;2022-11-25T09:56:21;3.83;;;3.33;;
46266;SDS011;31998;48.798;15.066;2022-11-25T09:58:55;4.07;;;2.40;;
46266;SDS011;31998;48.798;15.066;2022-11-25T10:01:31;3.10;;;2.23;;
46266;SDS011;31998;48.798;15.066;2022-11-25T10:04:05;7.33;;;3.00;;
46266;SDS011;31998;48.798;15.066;2022-11-25T10:06:44;5.33;;;2.50;;
46266;SDS011;31998;48.798;15.066;2022-11-25T10:09:17;3.03;;;2.23;;
46266;SDS011;31998;48.798;15.066;2022-11-25T10:19:56;3.57;;;2.57;;
46266;SDS011;31998;48.798;15.066;2022-11-25T10:24:50;2.60;;;2.40;;
46266;SDS011;31998;48.798;15.066;2022-11-25T10:30:16;3.63;;;2.10;;
46266;SDS011;31998;48.798;15.066;2022-11-25T10:32:58;2.27;;;2.07;;
46266;SDS011;31998;48.798;15.066;2022-11-25T10:35:50;5.97;;;4.33;;
46266;SDS011;31998;48.798;15.066;2022-11-25T10:39:20;7.03;;;2.60;;
46266;SDS011;31998;48.798;15.066;2022-11-25T10:41:15;3.47;;;1.80;;
46266;SDS011;31998;48.798;15.066;2022-11-25T10:43:44;5.40;;;1.43;;
46266;SDS011;31998;48.798;15.066;2022-11-25T10:46:17;3.53;;;2.30;;
46266;SDS011;31998;48.798;15.066;2022-11-25T10:52:00;4.67;;;2.00;;
46266;SDS011;31998;48.798;15.066;2022-11-25T10:54:26;4.37;;;1.67;;
46266;SDS011;31998;48.798;15.066;2022-11-25T10:57:00;12.10;;;1.50;;
46266;SDS011;31998;48.798;15.066;2022-11-25T10:59:30;1.73;;;1.40;;
46266;SDS011;31998;48.798;15.066;2022-11-25T11:02:36;5.40;;;1.60;;
46266;SDS011;31998;48.798;15.066;2022-11-25T11:07:23;1.53;;;1.10;;
46266;SDS011;31998;48.798;15.066;2022-11-25T11:09:53;3.70;;;1.13;;
46266;SDS011;31998;48.798;15.066;2022-11-25T11:12:26;3.57;;;1.40;;
46266;SDS011;31998;48.798;15.066;2022-11-25T11:14:54;2.00;;;1.10;;
46266;SDS011;31998;48.798;15.066;2022-11-25T11:17:39;4.40;;;1.57;;
46266;SDS011;31998;48.798;15.066;2022-11-25T11:22:32;2.80;;;1.17;;
46266;SDS011;31998;48.798;15.066;2022-11-25T11:27:48;2.43;;;1.93;;
46266;SDS011;31998;48.798;15.066;2022-11-25T11:32:43;2.80;;;1.80;;
46266;SDS011;31998;48.798;15.066;2022-11-25T11:38:04;2.40;;;1.63;;
46266;SDS011;31998;48.798;15.066;2022-11-25T11:40:48;8.43;;;5.10;;
46266;SDS011;31998;48.798;15.066;2022-11-25T11:43:37;3.50;;;3.00;;
46266;SDS011;31998;48.798;15.066;2022-11-25T11:59:54;3.43;;;1.70;;
46266;SDS011;31998;48.798;15.066;2022-11-25T12:12:57;3.07;;;2.77;;
46266;SDS011;31998;48.798;15.066;2022-11-25T12:18:01;7.10;;;2.30;;
46266;SDS011;31998;48.798;15.066;2022-11-25T12:20:37;6.57;;;4.70;;
46266;SDS011;31998;48.798;15.066;2022-11-25T12:25:55;6.67;;;4.17;;
46266;SDS011;31998;48.798;15.066;2022-11-25T12:28:33;5.57;;;2.47;;
46266;SDS011;31998;48.798;15.066;2022-11-25T12:33:52;6.30;;;3.43;;
46266;SDS011;31998;48.798;15.066;2022-11-25T12:36:32;6.23;;;1.80;;
46266;SDS011;31998;48.798;15.066;2022-11-25T12:39:02;2.20;;;1.67;;
46266;SDS011;31998;48.798;15.066;2022-11-25T12:42:05;6.53;;;2.30;;
46266;SDS011;31998;48.798;15.066;2022-11-25T12:47:23;6.33;;;4.20;;
46266;SDS011;31998;48.798;15.066;2022-11-25T12:49:49;2.77;;;2.07;;
46266;SDS011;31998;48.798;15.066;2022-11-25T13:03:07;6.80;;;6.10;;
46266;SDS011;31998;48.798;15.066;2022-11-25T13:06:00;6.60;;;5.90;;
46266;SDS011;31998;48.798;15.066;2022-11-25T13:17:42;6.73;;;2.27;;
46266;SDS011;31998;48.798;15.066;2022-11-25T13:25:53;9.73;;;2.90;;
46266;SDS011;31998;48.798;15.066;2022-11-25T13:28:52;10.47;;;3.07;;
46266;SDS011;31998;48.798;15.066;2022-11-25T13:36:18;2.40;;;2.20;;
46266;SDS011;31998;48.798;15.066;2022-11-25T13:46:47;1.77;;;1.03;;
46266;SDS011;31998;48.798;15.066;2022-11-25T13:49:22;3.67;;;1.33;;
46266;SDS011;31998;48.798;15.066;2022-11-25T13:51:58;2.20;;;1.00;;
46266;SDS011;31998;48.798;15.066;2022-11-25T13:54:38;1.37;;;1.27;;
46266;SDS011;31998;48.798;15.066;2022-11-25T14:08:13;1.10;;;0.83;;
46266;SDS011;31998;48.798;15.066;2022-11-25T14:15:59;4.83;;;1.27;;
46266;SDS011;31998;48.798;15.066;2022-11-25T14:24:32;4.67;;;0.60;;
46266;SDS011;31998;48.798;15.066;2022-11-25T14:26:53;1.27;;;1.20;;
46266;SDS011;31998;48.798;15.066;2022-11-25T14:31:50;1.70;;;0.97;;
46266;SDS011;31998;48.798;15.066;2022-11-25T14:36:55;4.37;;;1.37;;
46266;SDS011;31998;48.798;15.066;2022-11-25T14:39:27;0.70;;;0.70;;
46266;SDS011;31998;48.798;15.066;2022-11-25T14:42:01;1.37;;;0.90;;
46266;SDS011;31998;48.798;15.066;2022-11-25T14:44:36;3.23;;;0.80;;
46266;SDS011;31998;48.798;15.066;2022-11-25T14:47:09;0.90;;;0.70;;
46266;SDS011;31998;48.798;15.066;2022-11-25T14:49:47;1.20;;;0.90;;
46266;SDS011;31998;48.798;15.066;2022-11-25T14:52:15;0.87;;;0.60;;
46266;SDS011;31998;48.798;15.066;2022-11-25T14:54:45;3.43;;;1.07;;
46266;SDS011;31998;48.798;15.066;2022-11-25T14:57:11;4.00;;;0.73;;
46266;SDS011;31998;48.798;15.066;2022-11-25T14:59:36;3.03;;;1.03;;
46266;SDS011;31998;48.798;15.066;2022-11-25T15:02:02;2.03;;;0.70;;
46266;SDS011;31998;48.798;15.066;2022-11-25T15:04:30;0.80;;;0.80;;
46266;SDS011;31998;48.798;15.066;2022-11-25T15:06:56;0.73;;;0.73;;
46266;SDS011;31998;48.798;15.066;2022-11-25T15:11:58;3.20;;;0.80;;
46266;SDS011;31998;48.798;15.066;2022-11-25T15:14:27;0.80;;;0.80;;
46266;SDS011;31998;48.798;15.066;2022-11-25T15:17:00;0.73;;;0.73;;
46266;SDS011;31998;48.798;15.066;2022-11-25T15:19:32;0.80;;;0.80;;
46266;SDS011;31998;48.798;15.066;2022-11-25T15:22:03;0.73;;;0.73;;
46266;SDS011;31998;48.798;15.066;2022-11-25T15:24:31;0.70;;;0.70;;
46266;SDS011;31998;48.798;15.066;2022-11-25T15:27:18;0.70;;;0.70;;
46266;SDS011;31998;48.798;15.066;2022-11-25T15:29:46;0.87;;;0.73;;
46266;SDS011;31998;48.798;15.066;2022-11-25T15:34:48;2.67;;;1.10;;
46266;SDS011;31998;48.798;15.066;2022-11-25T15:37:16;1.00;;;1.00;;
46266;SDS011;31998;48.798;15.066;2022-11-25T15:39:42;1.87;;;0.70;;
46266;SDS011;31998;48.798;15.066;2022-11-25T15:42:15;2.77;;;0.73;;
46266;SDS011;31998;48.798;15.066;2022-11-25T15:52:28;0.70;;;0.70;;
46266;SDS011;31998;48.798;15.066;2022-11-25T15:55:07;0.50;;;0.50;;
46266;SDS011;31998;48.798;15.066;2022-11-25T15:58:01;1.63;;;0.63;;
46266;SDS011;31998;48.798;15.066;2022-11-25T16:01:03;1.00;;;0.70;;
46266;SDS011;31998;48.798;15.066;2022-11-25T16:03:42;11.53;;;0.80;;
46266;SDS011;31998;48.798;15.066;2022-11-25T16:09:18;0.70;;;0.70;;
46266;SDS011;31998;48.798;15.066;2022-11-25T16:11:45;0.50;;;0.50;;
46266;SDS011;31998;48.798;15.066;2022-11-25T16:14:17;1.50;;;0.40;;
46266;SDS011;31998;48.798;15.066;2022-11-25T16:16:47;1.13;;;0.80;;
46266;SDS011;31998;48.798;15.066;2022-11-25T16:19:16;0.60;;;0.60;;
46266;SDS011;31998;48.798;15.066;2022-11-25T16:21:52;0.50;;;0.50;;
46266;SDS011;31998;48.798;15.066;2022-11-25T16:24:39;0.73;;;0.60;;
46266;SDS011;31998;48.798;15.066;2022-11-25T16:27:21;1.70;;;0.73;;
46266;SDS011;31998;48.798;15.066;2022-11-25T16:29:52;0.83;;;0.50;;
46266;SDS011;31998;48.798;15.066;2022-11-25T16:32:32;5.93;;;0.90;;
46266;SDS011;31998;48.798;15.066;2022-11-25T16:35:14;4.83;;;0.60;;
46266;SDS011;31998;48.798;15.066;2022-11-25T16:37:42;1.27;;;0.73;;
46266;SDS011;31998;48.798;15.066;2022-11-25T16:40:10;0.43;;;0.43;;
46266;SDS011;31998;48.798;15.066;2022-11-25T16:42:36;6.03;;;0.80;;
46266;SDS011;31998;48.798;15.066;2022-11-25T16:45:02;3.23;;;0.70;;
46266;SDS011;31998;48.798;15.066;2022-11-25T16:47:41;2.30;;;1.00;;
46266;SDS011;31998;48.798;15.066;2022-11-25T16:50:13;1.10;;;1.00;;
46266;SDS011;31998;48.798;15.066;2022-11-25T16:52:40;3.73;;;0.90;;
46266;SDS011;31998;48.798;15.066;2022-11-25T16:55:06;0.80;;;0.80;;
46266;SDS011;31998;48.798;15.066;2022-11-25T16:57:32;8.20;;;0.90;;
46266;SDS011;31998;48.798;15.066;2022-11-25T16:59:58;1.27;;;0.70;;
46266;SDS011;31998;48.798;15.066;2022-11-25T17:02:27;1.90;;;1.10;;
46266;SDS011;31998;48.798;15.066;2022-11-25T17:04:52;0.63;;;0.63;;
46266;SDS011;31998;48.798;15.066;2022-11-25T17:07:18;1.80;;;0.87;;
46266;SDS011;31998;48.798;15.066;2022-11-25T17:09:44;0.87;;;0.87;;
46266;SDS011;31998;48.798;15.066;2022-11-25T17:12:17;2.90;;;0.80;;
46266;SDS011;31998;48.798;15.066;2022-11-25T17:14:48;2.07;;;1.00;;
46266;SDS011;31998;48.798;15.066;2022-11-25T17:17:15;6.60;;;1.57;;
46266;SDS011;31998;48.798;15.066;2022-11-25T17:19:45;3.20;;;2.10;;
46266;SDS011;31998;48.798;15.066;2022-11-25T17:22:15;2.50;;;2.07;;
46266;SDS011;31998;48.798;15.066;2022-11-25T17:24:42;3.43;;;3.13;;
46266;SDS011;31998;48.798;15.066;2022-11-25T17:27:08;1.73;;;1.63;;
46266;SDS011;31998;48.798;15.066;2022-11-25T17:29:41;1.27;;;1.27;;